Time;durP1;ratioP1;P1;durP2;ratioP2;P2;SDS_P1;SDS_P2;PMS_P1;PMS_P2;Temp;Humidity;BMP_temperature;BMP_pressure;BME280_temperature;BME280_humidity;BME280_pressure;Samples;Min_cycle;Max_cycle;Signal;HPM_P1;HPM_P2
2022/04/21 00:00:32;;;;;;;3.55;3.00;;;;;;;9.38;67.07;101135.59;5055326;28;20043;-83
2022/04/21 00:02:58;;;;;;;5.47;3.60;;;;;;;9.26;66.75;101129.72;5059170;28;20068;-80
2022/04/21 00:05:23;;;;;;;5.35;2.97;;;;;;;9.18;67.02;101121.03;5024822;28;20035;-82
2022/04/21 00:07:49;;;;;;;5.68;3.10;;;;;;;9.15;67.22;101122.97;5044132;28;20047;-80
2022/04/21 00:10:16;;;;;;;8.23;3.45;;;;;;;9.16;67.37;101124.56;5041410;28;20431;-79
2022/04/21 00:12:41;;;;;;;6.30;3.40;;;;;;;9.17;67.42;101130.56;5053043;28;20349;-81
2022/04/21 00:15:08;;;;;;;5.63;3.13;;;;;;;9.18;67.71;101121.84;5058548;28;20037;-79
2022/04/21 00:17:33;;;;;;;6.15;3.72;;;;;;;9.18;68.09;101121.03;5038058;28;20029;-82
2022/04/21 00:19:59;;;;;;;5.80;3.55;;;;;;;9.13;68.31;101117.06;5038277;28;20082;-79
2022/04/21 00:25:09;;;;;;;5.45;3.78;;;;;;;9.01;68.52;101117.38;5054725;28;20040;-80
2022/04/21 00:27:39;;;;;;;6.85;3.53;;;;;;;8.96;68.54;101120.38;5056760;28;20035;-82
2022/04/21 00:30:06;;;;;;;9.57;3.42;;;;;;;8.86;68.70;101117.00;5025047;28;20017;-79
2022/04/21 00:32:33;;;;;;;5.78;3.30;;;;;;;8.77;69.04;101118.63;5055658;28;20047;-82
2022/04/21 00:34:59;;;;;;;7.20;3.47;;;;;;;8.69;69.41;101116.72;5061852;28;20037;-80
2022/04/21 00:37:24;;;;;;;5.88;3.13;;;;;;;8.61;69.65;101120.91;5042373;28;20040;-79
2022/04/21 00:39:50;;;;;;;5.05;3.35;;;;;;;8.51;69.78;101115.75;5028332;28;20040;-79
2022/04/21 00:42:16;;;;;;;5.45;3.35;;;;;;;8.44;70.32;101115.47;5041553;28;20036;-78
2022/04/21 00:44:41;;;;;;;6.22;3.47;;;;;;;8.39;69.85;101118.41;5057832;28;20040;-81
2022/04/21 00:47:07;;;;;;;7.90;3.72;;;;;;;8.34;70.27;101115.44;5062206;28;20399;-82
2022/04/21 00:49:33;;;;;;;6.88;4.00;;;;;;;8.30;70.76;101108.88;5058706;28;20024;-79
2022/04/21 00:52:01;;;;;;;5.72;3.35;;;;;;;8.30;70.58;101111.47;5029921;28;20055;-79
2022/04/21 00:54:30;;;;;;;8.77;4.10;;;;;;;8.33;70.54;101110.41;5060253;28;20123;-79
2022/04/21 00:56:56;;;;;;;5.68;3.53;;;;;;;8.35;70.33;101104.13;5059418;28;20043;-79
2022/04/21 00:59:22;;;;;;;6.85;4.20;;;;;;;8.38;70.41;101109.03;5052126;28;20024;-78
2022/04/21 01:04:32;;;;;;;6.43;3.78;;;;;;;8.33;70.67;101102.66;5037867;28;20417;-78
2022/04/21 01:06:58;;;;;;;5.43;3.65;;;;;;;8.30;70.37;101102.91;5021910;28;20282;-78
2022/04/21 01:09:23;;;;;;;4.88;3.47;;;;;;;8.29;70.28;101102.09;5037507;28;20028;-78
2022/04/21 01:11:50;;;;;;;6.95;3.90;;;;;;;8.24;70.39;101100.88;5038262;28;20303;-78
2022/04/21 01:14:16;;;;;;;6.10;4.57;;;;;;;8.19;70.52;101101.25;5039214;28;20040;-78
2022/04/21 01:16:42;;;;;;;4.90;3.65;;;;;;;8.15;70.92;101107.63;5039340;28;20025;-78
2022/04/21 01:19:07;;;;;;;7.63;4.13;;;;;;;8.11;71.15;101099.31;5043190;28;20479;-78
2022/04/21 01:21:33;;;;;;;6.45;4.18;;;;;;;8.15;71.00;101105.03;5039839;28;20036;-78
2022/04/21 01:23:59;;;;;;;6.15;3.83;;;;;;;8.15;71.19;101105.03;5037130;28;20035;-79
2022/04/21 01:26:28;;;;;;;9.00;4.00;;;;;;;8.15;71.20;101100.69;5020364;28;20029;-78
2022/04/21 01:28:55;;;;;;;5.70;3.63;;;;;;;8.15;71.44;101105.84;5055205;28;20461;-78
2022/04/21 01:31:22;;;;;;;4.93;3.53;;;;;;;8.09;71.48;101096.06;5039275;28;20378;-78
2022/04/21 01:33:47;;;;;;;8.43;3.83;;;;;;;7.98;71.61;101093.59;5037376;28;20706;-78
2022/04/21 01:36:13;;;;;;;5.68;3.90;;;;;;;7.83;72.08;101093.13;5039766;28;20045;-78
2022/04/21 01:41:23;;;;;;;5.80;3.85;;;;;;;7.62;73.11;101085.44;5038474;28;20060;-78
2022/04/21 01:43:48;;;;;;;6.60;4.15;;;;;;;7.54;72.96;101093.84;5056868;28;20471;-78
2022/04/21 01:46:13;;;;;;;7.57;4.30;;;;;;;7.46;73.59;101085.94;5039890;28;20033;-78
2022/04/21 01:48:39;;;;;;;7.30;4.07;;;;;;;7.44;73.93;101077.50;5058010;28;20064;-78
2022/04/21 01:51:04;;;;;;;7.03;4.45;;;;;;;7.41;74.17;101086.31;5045230;28;20029;-77
2022/04/21 01:53:30;;;;;;;5.65;4.30;;;;;;;7.43;73.87;101083.59;5039331;28;20059;-78
2022/04/21 01:55:56;;;;;;;7.80;4.57;;;;;;;7.47;73.70;101082.38;5042089;28;20534;-78
2022/04/21 01:58:21;;;;;;;8.52;4.55;;;;;;;7.50;73.88;101084.72;5041540;28;20506;-78
2022/04/21 02:00:47;;;;;;;5.90;4.40;;;;;;;7.53;73.65;101081.06;5043582;28;20178;-78
2022/04/21 02:03:13;;;;;;;8.18;4.20;;;;;;;7.52;73.49;101069.13;5057297;28;20468;-78
2022/04/21 02:05:38;;;;;;;6.93;4.05;;;;;;;7.51;73.30;101075.22;5042047;28;20036;-79
2022/04/21 02:08:04;;;;;;;10.10;4.70;;;;;;;7.50;73.41;101078.75;5026754;28;20063;-78
2022/04/21 02:10:30;;;;;;;8.15;4.70;;;;;;;7.51;73.51;101075.22;5028104;28;20032;-78
2022/04/21 02:12:56;;;;;;;6.85;4.15;;;;;;;7.49;73.66;101072.75;5036088;28;20036;-78
2022/04/21 02:15:23;;;;;;;6.57;4.57;;;;;;;7.49;73.33;101074.53;5040510;28;20101;-78
2022/04/21 02:17:49;;;;;;;7.43;4.15;;;;;;;7.46;73.57;101070.44;5021955;28;20068;-78
2022/04/21 02:20:16;;;;;;;11.63;4.35;;;;;;;7.37;73.53;101068.63;5039927;28;20555;-78
2022/04/21 02:22:45;;;;;;;11.77;4.40;;;;;;;7.24;73.79;101068.84;5040311;28;20938;-78
2022/04/21 02:25:12;;;;;;;8.52;4.78;;;;;;;7.12;74.42;101064.69;5041039;28;20036;-78
2022/04/21 02:27:39;;;;;;;8.95;4.25;;;;;;;7.02;74.68;101064.63;5024048;28;20143;-77
2022/04/21 02:30:07;;;;;;;5.53;4.05;;;;;;;6.98;74.87;101065.81;5021696;28;20355;-78
2022/04/21 02:32:33;;;;;;;7.03;4.65;;;;;;;6.98;74.93;101064.06;5059216;28;20036;-78
2022/04/21 02:34:58;;;;;;;9.27;5.15;;;;;;;7.00;75.70;101064.75;5025384;28;20319;-78
2022/04/21 02:37:24;;;;;;;9.20;3.95;;;;;;;7.00;75.33;101062.16;5039473;28;20033;-78
2022/04/21 02:39:50;;;;;;;6.80;4.32;;;;;;;7.02;75.43;101059.47;5057567;28;20085;-78
2022/04/21 02:42:16;;;;;;;8.35;4.50;;;;;;;7.02;75.52;101052.53;5060548;28;20487;-77
2022/04/21 02:44:42;;;;;;;6.65;4.60;;;;;;;7.04;75.31;101057.59;5038645;28;20154;-78
2022/04/21 02:47:08;;;;;;;8.57;4.30;;;;;;;7.04;75.16;101061.94;5058408;28;20112;-78
2022/04/21 02:49:35;;;;;;;8.35;5.00;;;;;;;7.04;75.35;101064.50;5023611;28;20119;-78
2022/04/21 02:52:04;;;;;;;8.07;4.63;;;;;;;7.02;75.69;101059.47;5057359;28;20033;-77
2022/04/21 02:57:22;;;;;;;8.55;5.35;;;;;;;6.95;75.72;101063.50;5044099;28;20029;-78
2022/04/21 02:59:53;;;;;;;6.38;4.32;;;;;;;6.90;75.81;101052.75;5025640;28;20037;-78
2022/04/21 03:02:20;;;;;;;7.78;4.90;;;;;;;6.86;76.11;101054.78;5038204;28;20049;-78
2022/04/21 03:04:46;;;;;;;6.90;4.85;;;;;;;6.85;75.89;101047.97;5055810;28;20501;-78
2022/04/21 03:07:17;;;;;;;8.98;4.60;;;;;;;6.85;76.09;101054.88;5056264;28;20119;-78
2022/04/21 03:09:43;;;;;;;10.43;5.45;;;;;;;6.81;76.26;101047.41;5026586;28;20045;-78
2022/04/21 03:12:10;;;;;;;8.55;4.32;;;;;;;6.80;76.17;101050.94;5059762;28;20043;-78
2022/04/21 03:14:37;;;;;;;7.65;4.50;;;;;;;6.78;76.60;101045.09;5054734;28;20029;-77
2022/04/21 03:17:06;;;;;;;9.00;4.82;;;;;;;6.76;77.17;101044.41;5038400;28;20039;-78
2022/04/21 03:19:33;;;;;;;11.35;5.28;;;;;;;6.74;76.97;101045.44;5023498;28;20060;-78
2022/04/21 03:24:43;;;;;;;8.30;5.28;;;;;;;6.71;77.30;101048.28;5038885;28;20759;-78
2022/04/21 03:27:08;;;;;;;9.25;4.78;;;;;;;6.69;77.29;101050.97;5027106;28;20036;-78
2022/04/21 03:29:40;;;;;;;11.18;5.13;;;;;;;6.69;77.39;101056.13;5041170;28;20499;-78
2022/04/21 03:32:10;;;;;;;7.72;4.57;;;;;;;6.66;77.37;101058.94;5054402;28;20029;-77
2022/04/21 03:34:40;;;;;;;9.63;5.00;;;;;;;6.59;77.50;101057.81;5057731;28;20031;-78
2022/04/21 03:37:11;;;;;;;8.48;4.72;;;;;;;6.51;78.11;101065.34;5026424;28;20036;-78
2022/04/21 03:39:37;;;;;;;7.82;5.22;;;;;;;6.40;78.09;101064.47;5023308;28;20408;-78
2022/04/21 03:42:07;;;;;;;7.60;5.20;;;;;;;6.33;78.42;101068.47;5041189;28;20086;-78
2022/04/21 03:44:34;;;;;;;8.18;5.05;;;;;;;6.31;78.85;101074.66;5058133;28;20565;-77
2022/04/21 03:47:00;;;;;;;8.10;6.13;;;;;;;6.29;78.99;101071.38;5019919;28;20029;-78
2022/04/21 03:49:30;;;;;;;7.10;4.85;;;;;;;6.29;78.95;101074.78;5038415;28;20385;-78
2022/04/21 03:51:56;;;;;;;6.78;4.70;;;;;;;6.32;78.88;101076.28;5039434;28;20043;-78
2022/04/21 03:54:23;;;;;;;9.43;5.47;;;;;;;6.33;78.85;101075.34;5020449;28;20109;-78
2022/04/21 03:56:51;;;;;;;9.20;5.13;;;;;;;6.34;78.61;101072.66;5025022;28;20036;-78
2022/04/21 03:59:18;;;;;;;10.52;5.03;;;;;;;6.36;78.57;101072.53;5022791;28;20090;-78
2022/04/21 04:01:44;;;;;;;11.35;5.22;;;;;;;6.36;78.24;101081.06;5039298;28;20589;-78
2022/04/21 04:04:10;;;;;;;13.20;4.95;;;;;;;6.37;78.26;101075.00;5056460;28;20036;-78
2022/04/21 04:12:07;;;;;;;8.48;4.60;;;;;;;6.36;77.95;101075.91;5039204;28;20275;-78
2022/04/21 04:14:32;;;;;;;8.02;5.15;;;;;;;6.35;77.81;101076.88;5055004;28;20024;-78
2022/04/21 04:16:58;;;;;;;9.23;5.20;;;;;;;6.32;78.56;101073.72;5024332;28;20037;-78
2022/04/21 04:19:23;;;;;;;10.05;5.15;;;;;;;6.30;78.54;101073.84;5037076;28;20147;-78
2022/04/21 04:21:49;;;;;;;8.23;5.15;;;;;;;6.30;78.59;101073.03;5023812;28;20026;-78
2022/04/21 04:24:15;;;;;;;14.40;5.22;;;;;;;6.29;78.45;101074.78;5025075;28;20366;-77
2022/04/21 04:26:40;;;;;;;9.18;5.15;;;;;;;6.30;78.11;101075.59;5037281;28;20032;-77
2022/04/21 04:29:06;;;;;;;9.05;4.97;;;;;;;6.28;78.19;101073.16;5023017;28;20506;-77
2022/04/21 04:31:33;;;;;;;13.68;6.90;;;;;;;6.27;78.26;101086.94;5026091;28;20024;-78
2022/04/21 04:33:59;;;;;;;26.48;14.75;;;;;;;6.27;78.30;101079.22;5037604;28;20035;-78
2022/04/21 04:36:24;;;;;;;23.30;10.63;;;;;;;6.27;78.09;101084.38;5022974;28;20250;-78
2022/04/21 04:38:50;;;;;;;13.55;7.55;;;;;;;6.27;78.27;101078.41;5039686;28;20029;-78
2022/04/21 04:44:01;;;;;;;9.77;6.15;;;;;;;6.26;78.05;101080.19;5033653;28;20709;-78
2022/04/21 04:46:35;;;;;;;12.00;6.03;;;;;;;6.26;78.15;101085.31;5042541;28;20024;-78
2022/04/21 04:49:06;;;;;;;8.82;5.35;;;;;;;6.26;78.30;101079.38;5019616;28;20105;-78
2022/04/21 04:51:33;;;;;;;9.35;5.38;;;;;;;6.26;78.22;101082.75;5039956;28;20075;-77
2022/04/21 04:53:59;;;;;;;8.05;5.20;;;;;;;6.26;77.95;101093.06;5036165;28;20089;-78
2022/04/21 04:56:24;;;;;;;7.22;5.40;;;;;;;6.28;78.28;101086.03;5054559;28;20037;-78
2022/04/21 04:58:51;;;;;;;10.35;6.32;;;;;;;6.27;78.06;101079.22;5022544;28;20024;-78
2022/04/21 05:01:27;;;;;;;8.63;5.28;;;;;;;6.27;77.95;101078.41;5057171;28;20042;-78
2022/04/21 05:04:06;;;;;;;12.15;5.25;;;;;;;6.28;78.60;101078.28;5051944;28;20101;-78
2022/04/21 05:06:45;;;;;;;10.13;5.68;;;;;;;6.29;78.19;101079.94;5023215;28;20550;-77
2022/04/21 05:09:13;;;;;;;10.40;5.10;;;;;;;6.30;78.13;101073.03;5024939;28;20071;-78
2022/04/21 05:11:40;;;;;;;9.93;5.63;;;;;;;6.30;78.15;101079.00;5038146;28;20037;-78
2022/04/21 05:14:09;;;;;;;13.32;5.80;;;;;;;6.33;78.73;101080.50;5037184;28;20388;-78
2022/04/21 05:16:37;;;;;;;10.70;5.53;;;;;;;6.34;79.21;101079.56;5040935;28;20048;-78
2022/04/21 05:19:07;;;;;;;9.18;6.10;;;;;;;6.35;79.33;101081.22;5042431;28;20028;-78
2022/04/21 05:21:34;;;;;;;15.90;6.55;;;;;;;6.36;79.63;101080.25;5061728;28;20028;-77
2022/04/21 05:24:01;;;;;;;10.25;5.60;;;;;;;6.39;79.82;101077.47;5024813;28;20047;-78
2022/04/21 05:26:28;;;;;;;8.88;5.70;;;;;;;6.40;79.54;101079.91;5044355;28;20100;-77
2022/04/21 05:28:54;;;;;;;13.88;5.60;;;;;;;6.43;79.71;101071.94;5041034;28;20104;-77
2022/04/21 05:31:21;;;;;;;10.77;6.10;;;;;;;6.45;79.79;101074.38;5043156;28;20477;-77
2022/04/21 05:33:47;;;;;;;9.60;5.22;;;;;;;6.51;79.63;101075.66;5051439;28;20439;-77
2022/04/21 05:36:13;;;;;;;8.95;5.57;;;;;;;6.57;79.89;101070.00;5057590;28;20028;-78
2022/04/21 05:38:38;;;;;;;14.25;6.32;;;;;;;6.66;79.60;101071.03;5054933;28;20712;-77
2022/04/21 05:41:05;;;;;;;14.70;6.25;;;;;;;6.75;78.88;101067.72;5042000;28;20037;-78
2022/04/21 05:43:44;;;;;;;8.15;5.10;;;;;;;6.84;77.70;101064.38;5038634;28;20037;-78
2022/04/21 05:46:14;;;;;;;10.02;5.45;;;;;;;6.96;76.53;101070.28;5043367;28;20083;-78
2022/04/21 05:48:41;;;;;;;12.32;5.85;;;;;;;7.13;75.03;101064.56;5039455;28;20069;-77
2022/04/21 05:51:12;;;;;;;11.18;5.43;;;;;;;7.26;74.42;101063.56;5026571;28;20559;-77
2022/04/21 05:53:42;;;;;;;12.02;5.63;;;;;;;7.44;73.73;101056.88;5059521;28;20028;-77
2022/04/21 05:56:08;;;;;;;12.75;5.68;;;;;;;7.70;71.70;101058.97;5057664;28;20434;-77
2022/04/21 05:58:37;;;;;;;13.38;5.43;;;;;;;8.03;70.96;101055.28;5041185;28;20079;-77
2022/04/21 06:01:07;;;;;;;12.25;5.63;;;;;;;8.42;68.77;101055.38;5040551;28;20536;-77
2022/04/21 06:03:32;;;;;;;10.23;4.97;;;;;;;8.82;67.79;101046.63;5040303;28;20157;-77
2022/04/21 06:05:58;;;;;;;9.45;4.68;;;;;;;9.15;66.33;101044.50;5043322;28;20481;-77
2022/04/21 06:08:24;;;;;;;8.60;4.82;;;;;;;9.36;64.14;101044.28;5023393;28;21383;-77
2022/04/21 06:10:50;;;;;;;11.40;4.75;;;;;;;9.62;63.99;101041.06;5042191;28;20032;-77
2022/04/21 06:13:15;;;;;;;8.70;5.03;;;;;;;9.73;62.54;101035.69;5024416;28;20029;-77
2022/04/21 06:15:42;;;;;;;10.90;5.05;;;;;;;9.69;61.25;101035.16;5041922;28;20215;-77
2022/04/21 06:18:08;;;;;;;7.05;4.38;;;;;;;9.67;62.07;101042.25;5042189;28;20065;-77
2022/04/21 06:20:35;;;;;;;11.80;4.82;;;;;;;9.61;62.63;101042.03;5042302;28;20477;-77
2022/04/21 06:23:00;;;;;;;8.50;4.63;;;;;;;9.43;63.29;101044.56;5041761;28;20058;-78
2022/04/21 06:25:26;;;;;;;18.63;5.55;;;;;;;9.28;64.13;101050.19;5044543;28;20115;-77
2022/04/21 06:27:52;;;;;;;10.15;5.28;;;;;;;9.17;64.45;101047.75;5039059;28;20478;-78
2022/04/21 06:30:23;;;;;;;9.48;4.45;;;;;;;9.10;64.16;101042.34;5040831;28;20048;-77
2022/04/21 06:32:49;;;;;;;17.48;4.97;;;;;;;9.18;63.87;101046.81;5039359;28;20040;-77
2022/04/21 06:35:15;;;;;;;10.98;5.05;;;;;;;9.24;62.58;101042.84;5060180;28;20025;-77
2022/04/21 06:37:42;;;;;;;11.10;5.32;;;;;;;9.25;62.83;101047.06;5027850;28;20162;-78
2022/04/21 06:40:08;;;;;;;8.90;4.22;;;;;;;9.41;62.09;101042.09;5039392;28;20044;-77
2022/04/21 06:42:35;;;;;;;8.88;4.70;;;;;;;9.47;62.61;101041.53;5039587;28;20075;-77
2022/04/21 06:50:30;;;;;;;8.60;4.68;;;;;;;9.76;60.10;101043.19;5059239;28;20117;-78
2022/04/21 06:52:55;;;;;;;33.50;13.05;;;;;;;9.96;59.67;101038.69;5025692;28;20121;-77
2022/04/21 06:55:21;;;;;;;12.52;5.40;;;;;;;10.04;58.99;101043.13;5025268;28;20059;-77
2022/04/21 06:57:46;;;;;;;11.85;4.32;;;;;;;10.25;58.72;101048.88;5022778;28;20027;-78
2022/04/21 07:00:12;;;;;;;10.80;4.43;;;;;;;10.59;57.10;101047.41;5037924;28;20536;-77
2022/04/21 07:02:38;;;;;;;11.38;4.75;;;;;;;11.01;55.02;101042.34;5040182;28;20452;-78
2022/04/21 07:05:09;;;;;;;9.75;4.85;;;;;;;11.83;54.91;101040.13;5040587;28;20036;-78
2022/04/21 07:07:34;;;;;;;15.02;4.82;;;;;;;12.63;52.72;101037.00;5042008;28;20028;-78
2022/04/21 07:10:00;;;;;;;10.55;4.30;;;;;;;13.11;50.79;101034.50;5040637;28;20552;-78
2022/04/21 07:12:30;;;;;;;9.55;4.10;;;;;;;13.50;49.83;101038.13;5040440;28;20044;-78
2022/04/21 07:15:02;;;;;;;13.52;4.60;;;;;;;13.25;49.88;101036.41;5045996;28;20635;-78
2022/04/21 07:17:27;;;;;;;7.38;3.78;;;;;;;13.96;49.32;101040.84;5053209;28;20040;-78
2022/04/21 07:19:53;;;;;;;10.05;3.83;;;;;;;14.59;48.22;101031.91;5032494;28;20035;-78
2022/04/21 07:22:25;;;;;;;6.00;4.18;;;;;;;14.70;46.92;101037.72;5048103;28;20048;-78
2022/04/21 07:24:55;;;;;;;7.85;3.65;;;;;;;14.39;46.70;101038.56;5046999;28;20066;-77
2022/04/21 07:27:21;;;;;;;9.07;4.28;;;;;;;14.65;46.82;101047.88;5045901;28;20035;-77
2022/04/21 07:29:46;;;;;;;11.25;4.00;;;;;;;14.74;46.50;101052.81;5065726;28;20119;-77
2022/04/21 07:32:12;;;;;;;11.68;4.22;;;;;;;14.81;46.36;101052.13;5028545;28;20040;-78
2022/04/21 07:34:38;;;;;;;7.22;4.70;;;;;;;14.48;46.17;101055.78;5053504;28;20032;-77
2022/04/21 07:37:05;;;;;;;10.65;4.53;;;;;;;15.18;45.88;101052.09;5027315;28;20021;-77
2022/04/21 07:39:31;;;;;;;7.40;4.35;;;;;;;15.72;44.54;101039.66;5063767;28;20032;-77
2022/04/21 07:41:58;;;;;;;8.93;4.53;;;;;;;15.96;44.29;101038.56;5048008;28;20036;-78
2022/04/21 07:44:26;;;;;;;10.55;4.15;;;;;;;16.32;43.69;101046.34;5027220;28;20435;-78
2022/04/21 07:46:53;;;;;;;6.43;3.67;;;;;;;16.64;43.72;101031.09;5056136;28;20440;-78
2022/04/21 07:54:48;;;;;;;10.15;4.05;;;;;;;15.68;44.61;101036.59;5060421;28;20449;-77
2022/04/21 07:57:13;;;;;;;6.90;3.80;;;;;;;16.28;44.23;101036.44;5025167;28;20127;-78
2022/04/21 07:59:39;;;;;;;9.90;3.35;;;;;;;16.57;44.21;101040.69;5038026;28;20040;-77
2022/04/21 08:02:06;;;;;;;7.97;4.65;;;;;;;16.58;43.93;101036.31;5039275;28;20040;-78
2022/04/21 08:04:32;;;;;;;7.53;3.80;;;;;;;16.93;43.03;101032.75;5042825;28;20036;-77
2022/04/21 08:06:58;;;;;;;7.85;3.50;;;;;;;16.83;43.80;101029.66;5026655;28;20512;-79
2022/04/21 08:09:23;;;;;;;4.95;3.70;;;;;;;16.55;43.42;101029.63;5038520;28;20112;-77
2022/04/21 08:11:49;;;;;;;7.60;4.03;;;;;;;16.26;44.01;101026.16;5036538;28;20555;-78
2022/04/21 08:14:17;;;;;;;9.57;3.80;;;;;;;16.77;44.22;101024.34;5059381;28;20291;-78
2022/04/21 08:16:43;;;;;;;6.07;3.75;;;;;;;17.24;42.56;101022.84;5054480;28;20036;-78
2022/04/21 08:19:11;;;;;;;12.98;4.35;;;;;;;16.68;43.32;101034.94;5039051;28;20054;-77
2022/04/21 08:21:37;;;;;;;8.70;3.80;;;;;;;16.50;43.76;101030.19;5041372;28;20032;-77
2022/04/21 08:32:36;;;;;;;5.47;3.63;;;;;;;16.83;43.53;101027.03;5061135;28;20036;-78
2022/04/21 08:35:05;;;;;;;8.35;3.70;;;;;;;16.95;43.37;101022.06;5041006;28;20086;-78
2022/04/21 08:37:34;;;;;;;9.73;3.60;;;;;;;16.67;41.05;101035.13;5060542;28;20055;-77
2022/04/21 08:40:04;;;;;;;6.40;3.00;;;;;;;17.27;39.71;101025.03;5027099;28;20508;-77
2022/04/21 08:42:30;;;;;;;13.82;3.20;;;;;;;17.80;39.48;101024.44;5040240;28;20060;-78
2022/04/21 08:44:59;;;;;;;5.50;3.42;;;;;;;17.39;38.12;101031.38;5042465;28;20504;-77
2022/04/21 08:47:27;;;;;;;5.95;2.70;;;;;;;17.50;37.25;101033.44;5039336;28;20025;-78
2022/04/21 08:50:04;;;;;;;4.47;3.00;;;;;;;17.31;36.91;101027.09;5037390;28;20445;-77
2022/04/21 08:52:32;;;;;;;7.13;2.83;;;;;;;17.26;37.37;101026.88;5038044;28;20040;-78
2022/04/21 08:54:57;;;;;;;5.95;2.90;;;;;;;16.67;37.20;101024.66;5023723;28;20028;-78
2022/04/21 08:57:23;;;;;;;5.47;3.30;;;;;;;17.13;36.09;101022.38;5039927;28;20520;-77
2022/04/21 08:59:48;;;;;;;6.53;3.35;;;;;;;16.28;37.61;101008.47;5042486;28;20048;-77
2022/04/21 09:02:14;;;;;;;5.80;2.50;;;;;;;16.60;37.47;101021.22;5040170;28;20032;-79
2022/04/21 09:04:41;;;;;;;6.93;2.67;;;;;;;16.58;37.08;101010.13;5039565;28;20039;-79
2022/04/21 09:07:42;;;;;;;5.35;2.70;;;;;;;16.97;37.01;101001.75;5038169;28;20477;-78
2022/04/21 09:10:11;;;;;;;6.05;3.20;;;;;;;17.29;35.36;101002.91;5042075;28;20048;-78
2022/04/21 09:12:57;;;;;;;5.25;2.20;;;;;;;17.56;36.23;101007.44;5021555;28;20561;-78
2022/04/21 09:15:29;;;;;;;5.57;2.28;;;;;;;17.75;36.31;100998.81;5050608;28;21338;-77
2022/04/21 09:17:58;;;;;;;7.53;1.90;;;;;;;18.27;35.03;100997.28;5033030;28;20047;-78
2022/04/21 09:20:29;;;;;;;15.27;3.38;;;;;;;17.76;34.73;100994.38;5041976;28;20060;-78
2022/04/21 09:22:56;;;;;;;3.78;2.28;;;;;;;17.60;34.10;100996.34;5058029;28;20071;-77
2022/04/21 09:25:24;;;;;;;5.65;2.00;;;;;;;17.63;35.05;100987.25;5038525;28;20039;-78
2022/04/21 09:27:51;;;;;;;3.03;1.65;;;;;;;17.84;34.20;100984.53;5038332;28;20032;-78
2022/04/21 09:30:17;;;;;;;9.20;1.83;;;;;;;17.78;32.89;100990.56;5023099;28;20111;-79
2022/04/21 09:32:58;;;;;;;7.95;1.60;;;;;;;17.77;34.20;100978.44;5040684;28;20094;-78
2022/04/21 09:35:28;;;;;;;7.22;1.70;;;;;;;18.27;33.11;100980.72;5022694;28;20052;-77
2022/04/21 09:37:56;;;;;;;8.18;1.90;;;;;;;18.13;32.06;100968.63;5053477;28;20097;-77
2022/04/21 09:40:24;;;;;;;4.10;1.85;;;;;;;18.03;32.12;100966.41;5052741;28;20044;-77
2022/04/21 09:43:00;;;;;;;6.45;1.70;;;;;;;18.26;31.90;100972.03;5057528;28;20063;-78
2022/04/21 09:48:31;;;;;;;6.18;1.50;;;;;;;17.47;32.50;100963.03;5053934;28;20333;-77
2022/04/21 09:51:33;;;;;;;5.90;1.75;;;;;;;17.82;32.60;100962.09;5019534;28;20063;-77
2022/04/21 09:54:03;;;;;;;7.10;1.92;;;;;;;18.04;33.11;100958.31;5051718;28;20040;-77
2022/04/21 09:56:36;;;;;;;4.88;1.65;;;;;;;18.17;32.33;100965.38;5040701;28;20032;-77
2022/04/21 09:59:05;;;;;;;3.42;1.70;;;;;;;18.03;31.47;100955.91;5040819;28;20029;-78
2022/04/21 10:01:33;;;;;;;6.80;1.50;;;;;;;17.95;32.17;100954.28;5021666;28;20560;-77
2022/04/21 10:03:59;;;;;;;4.00;2.13;;;;;;;17.81;32.98;100965.72;5057049;28;20392;-77
2022/04/21 10:06:26;;;;;;;7.97;1.67;;;;;;;17.85;32.63;100957.28;5057424;28;20081;-77
2022/04/21 10:08:52;;;;;;;3.70;1.77;;;;;;;18.07;33.04;100954.50;5042965;28;20039;-78
2022/04/21 10:11:23;;;;;;;3.03;2.05;;;;;;;18.19;32.54;100945.00;5042617;28;20032;-78
2022/04/21 10:13:53;;;;;;;3.03;1.70;;;;;;;18.04;32.25;100941.75;5027226;28;20070;-77
2022/04/21 10:16:19;;;;;;;7.10;2.10;;;;;;;17.60;33.01;100943.91;5043423;28;20544;-79
2022/04/21 10:18:50;;;;;;;5.00;1.58;;;;;;;18.22;32.87;100938.53;5043772;28;20033;-78
2022/04/21 10:21:48;;;;;;;2.42;1.30;;;;;;;18.41;32.43;100940.34;5042604;28;20529;-77
2022/04/21 10:24:23;;;;;;;70.47;29.20;;;;;;;18.32;32.97;100933.69;5042921;28;20092;-78
2022/04/21 10:26:49;;;;;;;14.43;3.10;;;;;;;18.58;32.92;100929.41;5039320;28;20033;-78
2022/04/21 10:29:23;;;;;;;5.63;1.80;;;;;;;18.78;32.11;100921.44;5031189;28;20082;-79
2022/04/21 10:32:03;;;;;;;6.40;2.03;;;;;;;18.73;31.86;100908.16;5038712;28;20286;-78
2022/04/21 10:34:41;;;;;;;4.63;1.80;;;;;;;19.06;33.00;100914.13;5038080;28;20115;-77
2022/04/21 10:37:20;;;;;;;8.43;2.20;;;;;;;19.20;33.23;100912.22;5042308;28;20044;-77
2022/04/21 10:40:07;;;;;;;5.50;2.10;;;;;;;19.39;32.38;100907.06;5047848;28;20067;-78
2022/04/21 10:42:51;;;;;;;4.13;2.00;;;;;;;18.54;31.68;100909.81;5046595;28;20036;-78
2022/04/21 10:45:22;;;;;;;3.83;2.13;;;;;;;18.09;33.22;100916.53;5042518;28;20123;-80
2022/04/21 10:48:08;;;;;;;6.47;2.53;;;;;;;18.09;34.70;100910.50;5029270;28;20047;-78
2022/04/21 10:50:39;;;;;;;6.60;2.35;;;;;;;18.25;33.36;100899.59;5044882;28;20040;-80
2022/04/21 10:58:36;;;;;;;5.68;2.13;;;;;;;18.82;33.04;100897.22;5040012;28;20033;-78
2022/04/21 11:01:22;;;;;;;6.13;2.67;;;;;;;18.66;32.92;100893.19;5039225;28;20128;-78
2022/04/21 11:04:19;;;;;;;6.43;2.67;;;;;;;18.18;33.79;100895.34;5040429;28;20043;-77
2022/04/21 11:06:46;;;;;;;8.48;3.28;;;;;;;18.17;34.28;100893.72;5040209;28;20279;-78
2022/04/21 11:09:38;;;;;;;6.07;2.40;;;;;;;17.87;34.93;100896.75;5040352;28;20043;-77
2022/04/21 11:12:05;;;;;;;7.35;3.03;;;;;;;18.22;35.73;100884.22;5055335;28;20236;-78
2022/04/21 11:14:33;;;;;;;4.05;2.22;;;;;;;18.08;35.43;100887.88;5042863;28;20048;-78
2022/04/21 11:17:02;;;;;;;5.63;2.15;;;;;;;17.96;34.61;100881.66;5043081;28;20344;-78
2022/04/21 11:19:40;;;;;;;6.63;2.45;;;;;;;17.71;34.04;100890.09;5041839;28;20028;-79
2022/04/21 11:22:09;;;;;;;8.35;2.55;;;;;;;17.48;35.35;100877.38;5037763;28;20047;-77
2022/04/21 11:25:07;;;;;;;9.20;2.90;;;;;;;17.38;36.11;100885.59;5039733;28;20098;-78
2022/04/21 11:27:39;;;;;;;5.80;2.20;;;;;;;17.34;35.12;100880.97;5000130;28;20055;-78
2022/04/21 11:30:08;;;;;;;4.57;2.70;;;;;;;17.62;35.87;100878.97;5022724;28;21697;-78
2022/04/21 11:32:33;;;;;;;6.35;2.47;;;;;;;17.41;34.88;100863.44;5042665;28;20044;-77
2022/04/21 11:35:10;;;;;;;3.97;2.25;;;;;;;17.50;37.23;100867.47;5042940;28;20040;-77
2022/04/21 11:37:54;;;;;;;13.90;2.38;;;;;;;17.42;35.94;100873.72;5055106;28;20112;-78
2022/04/21 11:40:28;;;;;;;10.15;2.28;;;;;;;17.35;35.67;100875.53;5041195;28;20393;-80
2022/04/21 11:42:55;;;;;;;5.50;2.22;;;;;;;17.10;35.19;100876.06;5040097;28;20044;-78
2022/04/21 11:45:28;;;;;;;9.25;2.63;;;;;;;17.12;36.40;100865.38;5038859;28;20107;-78
2022/04/21 11:47:55;;;;;;;5.80;2.70;;;;;;;17.23;36.91;100856.94;5056738;28;20029;-79
2022/04/21 11:50:26;;;;;;;11.02;2.40;;;;;;;17.26;36.42;100861.00;5039527;28;20036;-78
2022/04/21 11:52:55;;;;;;;6.70;2.28;;;;;;;17.10;36.78;100860.34;5037396;28;20037;-79
2022/04/21 11:55:25;;;;;;;8.65;2.40;;;;;;;17.26;37.86;100863.59;5042065;28;20036;-78
2022/04/21 11:57:51;;;;;;;7.78;3.33;;;;;;;17.14;35.87;100863.38;5026672;28;20090;-78
2022/04/21 12:06:27;;;;;;;9.10;3.45;;;;;;;17.13;36.34;100856.50;5027180;28;20276;-77
2022/04/21 12:08:32;;;;;;;7.88;2.75;;;;;;;16.97;36.54;100862.09;5037202;28;20373;-79
2022/04/21 12:10:58;;;;;;;4.20;2.30;;;;;;;17.01;38.35;100853.66;5040082;28;20046;-77
2022/04/21 12:13:24;;;;;;;17.52;7.40;;;;;;;17.34;38.92;100850.31;5024531;28;20457;-78
2022/04/21 12:15:50;;;;;;;8.27;3.20;;;;;;;17.58;37.46;100850.75;5038998;28;20142;-77
2022/04/21 12:18:15;;;;;;;8.32;2.92;;;;;;;17.54;37.67;100850.34;5038835;28;20371;-78
2022/04/21 12:20:54;;;;;;;12.70;2.97;;;;;;;17.42;38.70;100851.94;5056235;28;20032;-78
2022/04/21 12:23:24;;;;;;;5.88;2.75;;;;;;;17.39;39.16;100847.09;5040845;28;20032;-78
2022/04/21 12:25:51;;;;;;;7.00;3.85;;;;;;;17.41;38.84;100848.50;5042677;28;20299;-78
2022/04/21 12:28:17;;;;;;;5.18;2.80;;;;;;;17.08;38.67;100845.81;5043353;28;20036;-78